sensor_id;sensor_type;location;lat;lon;timestamp;temperature;humidity
50907;DHT22;36882;27.680;85.304;2022-12-18T00:00:31;11.50;94.50
50907;DHT22;36882;27.680;85.304;2022-12-18T00:03:01;11.50;94.50
50907;DHT22;36882;27.680;85.304;2022-12-18T00:05:31;11.50;94.50
50907;DHT22;36882;27.680;85.304;2022-12-18T00:08:01;11.50;94.50
50907;DHT22;36882;27.680;85.304;2022-12-18T00:10:36;11.50;94.50
50907;DHT22;36882;27.680;85.304;2022-12-18T00:13:05;11.50;94.60
50907;DHT22;36882;27.680;85.304;2022-12-18T00:15:37;11.50;94.60
50907;DHT22;36882;27.680;85.304;2022-12-18T00:18:07;11.40;94.60
50907;DHT22;36882;27.680;85.304;2022-12-18T00:20:41;11.40;94.70
50907;DHT22;36882;27.680;85.304;2022-12-18T00:23:11;11.40;94.70
50907;DHT22;36882;27.680;85.304;2022-12-18T00:25:41;11.40;94.70
50907;DHT22;36882;27.680;85.304;2022-12-18T00:28:10;11.50;94.70
50907;DHT22;36882;27.680;85.304;2022-12-18T00:30:40;11.40;94.70
50907;DHT22;36882;27.680;85.304;2022-12-18T00:33:10;11.40;94.80
50907;DHT22;36882;27.680;85.304;2022-12-18T00:35:40;11.40;94.80
50907;DHT22;36882;27.680;85.304;2022-12-18T00:38:10;11.40;94.90
50907;DHT22;36882;27.680;85.304;2022-12-18T00:40:40;11.40;94.90
50907;DHT22;36882;27.680;85.304;2022-12-18T00:43:10;11.30;94.90
50907;DHT22;36882;27.680;85.304;2022-12-18T00:45:40;11.40;94.90
50907;DHT22;36882;27.680;85.304;2022-12-18T00:48:11;11.30;94.90
50907;DHT22;36882;27.680;85.304;2022-12-18T00:50:41;11.40;95.00
50907;DHT22;36882;27.680;85.304;2022-12-18T00:53:11;11.30;95.00
50907;DHT22;36882;27.680;85.304;2022-12-18T00:55:42;11.40;95.10
50907;DHT22;36882;27.680;85.304;2022-12-18T00:58:14;11.40;95.10
50907;DHT22;36882;27.680;85.304;2022-12-18T01:00:45;11.50;94.90
50907;DHT22;36882;27.680;85.304;2022-12-18T01:03:15;11.50;94.80
50907;DHT22;36882;27.680;85.304;2022-12-18T01:05:45;11.50;94.80
50907;DHT22;36882;27.680;85.304;2022-12-18T01:08:14;11.60;94.80
50907;DHT22;36882;27.680;85.304;2022-12-18T01:10:44;11.60;94.80
50907;DHT22;36882;27.680;85.304;2022-12-18T01:13:14;11.60;95.00
50907;DHT22;36882;27.680;85.304;2022-12-18T01:15:51;11.60;94.80
50907;DHT22;36882;27.680;85.304;2022-12-18T01:18:21;11.60;94.80
50907;DHT22;36882;27.680;85.304;2022-12-18T01:20:51;11.60;94.80
50907;DHT22;36882;27.680;85.304;2022-12-18T01:23:21;11.60;94.80
50907;DHT22;36882;27.680;85.304;2022-12-18T01:25:51;11.60;94.80
50907;DHT22;36882;27.680;85.304;2022-12-18T01:28:21;11.60;94.80
50907;DHT22;36882;27.680;85.304;2022-12-18T01:30:50;11.60;94.90
50907;DHT22;36882;27.680;85.304;2022-12-18T01:33:21;11.60;95.00
50907;DHT22;36882;27.680;85.304;2022-12-18T01:35:50;11.60;95.00
50907;DHT22;36882;27.680;85.304;2022-12-18T01:38:20;11.70;95.10
50907;DHT22;36882;27.680;85.304;2022-12-18T01:40:57;11.70;94.90
50907;DHT22;36882;27.680;85.304;2022-12-18T01:43:49;11.70;94.80
50907;DHT22;36882;27.680;85.304;2022-12-18T01:46:22;11.70;94.70
50907;DHT22;36882;27.680;85.304;2022-12-18T01:48:58;11.80;94.60
50907;DHT22;36882;27.680;85.304;2022-12-18T01:51:30;11.90;94.60
50907;DHT22;36882;27.680;85.304;2022-12-18T01:54:00;11.90;94.50
50907;DHT22;36882;27.680;85.304;2022-12-18T01:56:30;11.90;94.70
50907;DHT22;36882;27.680;85.304;2022-12-18T01:59:05;12.00;94.80
50907;DHT22;36882;27.680;85.304;2022-12-18T02:01:37;12.10;94.80
50907;DHT22;36882;27.680;85.304;2022-12-18T02:04:23;12.20;94.60
50907;DHT22;36882;27.680;85.304;2022-12-18T02:09:55;12.30;94.30
50907;DHT22;36882;27.680;85.304;2022-12-18T02:12:57;12.40;94.20
50907;DHT22;36882;27.680;85.304;2022-12-18T02:16:20;12.40;94.20
50907;DHT22;36882;27.680;85.304;2022-12-18T02:18:41;12.50;94.20
50907;DHT22;36882;27.680;85.304;2022-12-18T02:21:25;12.60;94.00
50907;DHT22;36882;27.680;85.304;2022-12-18T02:24:15;12.80;93.90
50907;DHT22;36882;27.680;85.304;2022-12-18T02:26:50;12.90;93.80
50907;DHT22;36882;27.680;85.304;2022-12-18T02:29:31;12.90;93.60
50907;DHT22;36882;27.680;85.304;2022-12-18T02:32:05;13.00;93.50
50907;DHT22;36882;27.680;85.304;2022-12-18T02:34:38;13.10;93.40
50907;DHT22;36882;27.680;85.304;2022-12-18T02:37:12;13.10;93.30
50907;DHT22;36882;27.680;85.304;2022-12-18T02:39:48;13.20;93.20
50907;DHT22;36882;27.680;85.304;2022-12-18T02:42:19;13.30;93.40
50907;DHT22;36882;27.680;85.304;2022-12-18T02:44:52;13.30;93.30
50907;DHT22;36882;27.680;85.304;2022-12-18T02:47:24;13.30;93.30
50907;DHT22;36882;27.680;85.304;2022-12-18T02:53:43;13.40;93.50
50907;DHT22;36882;27.680;85.304;2022-12-18T02:56:21;13.40;93.30
50907;DHT22;36882;27.680;85.304;2022-12-18T02:59:05;13.50;93.00
50907;DHT22;36882;27.680;85.304;2022-12-18T03:02:00;13.60;92.90
50907;DHT22;36882;27.680;85.304;2022-12-18T03:05:18;13.70;92.90
50907;DHT22;36882;27.680;85.304;2022-12-18T03:07:58;13.80;92.70
50907;DHT22;36882;27.680;85.304;2022-12-18T03:10:33;13.80;92.50
50907;DHT22;36882;27.680;85.304;2022-12-18T03:13:27;13.90;92.40
50907;DHT22;36882;27.680;85.304;2022-12-18T03:15:59;14.00;92.30
50907;DHT22;36882;27.680;85.304;2022-12-18T03:18:35;14.00;92.30
50907;DHT22;36882;27.680;85.304;2022-12-18T03:21:07;14.00;92.10
50907;DHT22;36882;27.680;85.304;2022-12-18T03:23:47;14.10;91.90
50907;DHT22;36882;27.680;85.304;2022-12-18T03:26:21;14.20;91.80
50907;DHT22;36882;27.680;85.304;2022-12-18T03:28:57;14.20;92.00
50907;DHT22;36882;27.680;85.304;2022-12-18T03:31:31;14.30;92.00
50907;DHT22;36882;27.680;85.304;2022-12-18T03:34:05;14.40;91.90
50907;DHT22;36882;27.680;85.304;2022-12-18T03:36:38;14.40;91.60
50907;DHT22;36882;27.680;85.304;2022-12-18T03:39:08;14.50;91.30
50907;DHT22;36882;27.680;85.304;2022-12-18T03:41:50;14.50;91.30
50907;DHT22;36882;27.680;85.304;2022-12-18T03:44:36;14.60;91.50
50907;DHT22;36882;27.680;85.304;2022-12-18T03:47:17;14.70;91.60
50907;DHT22;36882;27.680;85.304;2022-12-18T03:52:54;14.90;91.20
50907;DHT22;36882;27.680;85.304;2022-12-18T03:55:29;15.00;91.30
50907;DHT22;36882;27.680;85.304;2022-12-18T03:58:01;15.00;91.00
50907;DHT22;36882;27.680;85.304;2022-12-18T04:00:32;15.10;90.60
50907;DHT22;36882;27.680;85.304;2022-12-18T04:03:05;15.20;90.70
50907;DHT22;36882;27.680;85.304;2022-12-18T04:05:36;15.20;90.50
50907;DHT22;36882;27.680;85.304;2022-12-18T04:08:07;15.30;90.50
50907;DHT22;36882;27.680;85.304;2022-12-18T04:10:37;15.30;90.50
50907;DHT22;36882;27.680;85.304;2022-12-18T04:13:07;15.40;90.60
50907;DHT22;36882;27.680;85.304;2022-12-18T04:15:37;15.50;90.50
50907;DHT22;36882;27.680;85.304;2022-12-18T04:18:08;15.60;90.30
50907;DHT22;36882;27.680;85.304;2022-12-18T04:20:38;15.60;90.40
50907;DHT22;36882;27.680;85.304;2022-12-18T04:23:08;15.60;90.10
50907;DHT22;36882;27.680;85.304;2022-12-18T04:25:38;15.70;90.40
50907;DHT22;36882;27.680;85.304;2022-12-18T04:28:08;15.80;90.10
50907;DHT22;36882;27.680;85.304;2022-12-18T04:30:38;15.90;89.90
50907;DHT22;36882;27.680;85.304;2022-12-18T04:33:10;16.00;89.70
50907;DHT22;36882;27.680;85.304;2022-12-18T04:35:42;16.10;89.20
50907;DHT22;36882;27.680;85.304;2022-12-18T04:38:12;16.20;89.20
50907;DHT22;36882;27.680;85.304;2022-12-18T04:40:43;16.20;89.60
50907;DHT22;36882;27.680;85.304;2022-12-18T04:43:12;16.40;88.80
50907;DHT22;36882;27.680;85.304;2022-12-18T04:45:43;16.40;88.50
50907;DHT22;36882;27.680;85.304;2022-12-18T04:48:14;16.40;88.50
50907;DHT22;36882;27.680;85.304;2022-12-18T04:50:44;16.50;88.60
50907;DHT22;36882;27.680;85.304;2022-12-18T04:53:14;16.70;87.30
50907;DHT22;36882;27.680;85.304;2022-12-18T04:55:44;16.70;87.70
50907;DHT22;36882;27.680;85.304;2022-12-18T04:58:14;16.80;87.90
50907;DHT22;36882;27.680;85.304;2022-12-18T05:00:47;16.80;88.10
50907;DHT22;36882;27.680;85.304;2022-12-18T05:03:17;16.90;88.00
50907;DHT22;36882;27.680;85.304;2022-12-18T05:05:51;17.00;87.70
50907;DHT22;36882;27.680;85.304;2022-12-18T05:08:22;17.00;87.30
50907;DHT22;36882;27.680;85.304;2022-12-18T05:11:06;17.10;87.50
50907;DHT22;36882;27.680;85.304;2022-12-18T05:13:39;17.20;87.30
50907;DHT22;36882;27.680;85.304;2022-12-18T05:16:10;17.30;86.90
50907;DHT22;36882;27.680;85.304;2022-12-18T05:18:40;17.40;87.00
50907;DHT22;36882;27.680;85.304;2022-12-18T05:21:10;17.50;85.80
50907;DHT22;36882;27.680;85.304;2022-12-18T05:23:41;17.50;85.70
50907;DHT22;36882;27.680;85.304;2022-12-18T05:26:15;17.50;85.70
50907;DHT22;36882;27.680;85.304;2022-12-18T05:28:47;17.50;85.50
50907;DHT22;36882;27.680;85.304;2022-12-18T05:31:17;17.50;85.60
50907;DHT22;36882;27.680;85.304;2022-12-18T05:33:48;17.60;85.60
50907;DHT22;36882;27.680;85.304;2022-12-18T05:36:18;17.70;84.90
50907;DHT22;36882;27.680;85.304;2022-12-18T05:38:47;17.80;84.40
50907;DHT22;36882;27.680;85.304;2022-12-18T05:41:18;17.80;83.10
50907;DHT22;36882;27.680;85.304;2022-12-18T05:43:48;17.80;83.90
50907;DHT22;36882;27.680;85.304;2022-12-18T05:46:18;17.80;83.20
50907;DHT22;36882;27.680;85.304;2022-12-18T05:48:48;17.90;83.60
50907;DHT22;36882;27.680;85.304;2022-12-18T05:51:21;18.10;83.00
50907;DHT22;36882;27.680;85.304;2022-12-18T05:53:53;18.20;81.80
50907;DHT22;36882;27.680;85.304;2022-12-18T05:56:23;18.30;80.30
50907;DHT22;36882;27.680;85.304;2022-12-18T05:58:54;18.30;81.80
50907;DHT22;36882;27.680;85.304;2022-12-18T06:01:26;18.30;79.90
50907;DHT22;36882;27.680;85.304;2022-12-18T06:03:57;18.40;79.60
50907;DHT22;36882;27.680;85.304;2022-12-18T06:06:28;18.40;79.00
50907;DHT22;36882;27.680;85.304;2022-12-18T06:09:00;18.50;79.40
50907;DHT22;36882;27.680;85.304;2022-12-18T06:11:30;18.60;79.30
50907;DHT22;36882;27.680;85.304;2022-12-18T06:14:00;18.70;80.00
50907;DHT22;36882;27.680;85.304;2022-12-18T06:16:30;18.80;77.60
50907;DHT22;36882;27.680;85.304;2022-12-18T06:19:02;18.80;77.50
50907;DHT22;36882;27.680;85.304;2022-12-18T06:21:34;18.90;77.50
50907;DHT22;36882;27.680;85.304;2022-12-18T06:24:04;19.00;78.00
50907;DHT22;36882;27.680;85.304;2022-12-18T06:26:33;19.00;77.20
50907;DHT22;36882;27.680;85.304;2022-12-18T06:29:03;19.00;76.90
50907;DHT22;36882;27.680;85.304;2022-12-18T06:31:33;19.00;77.30
50907;DHT22;36882;27.680;85.304;2022-12-18T06:34:04;19.10;76.90
50907;DHT22;36882;27.680;85.304;2022-12-18T06:36:34;19.10;76.40
50907;DHT22;36882;27.680;85.304;2022-12-18T06:39:05;19.20;76.50
50907;DHT22;36882;27.680;85.304;2022-12-18T06:41:35;19.20;75.80
50907;DHT22;36882;27.680;85.304;2022-12-18T06:44:06;19.40;73.80
50907;DHT22;36882;27.680;85.304;2022-12-18T06:46:37;19.40;73.40
50907;DHT22;36882;27.680;85.304;2022-12-18T06:49:08;19.40;73.60
50907;DHT22;36882;27.680;85.304;2022-12-18T06:51:38;19.40;74.00
50907;DHT22;36882;27.680;85.304;2022-12-18T06:54:08;19.50;74.20
50907;DHT22;36882;27.680;85.304;2022-12-18T06:56:38;19.50;74.60
50907;DHT22;36882;27.680;85.304;2022-12-18T06:59:10;19.60;73.90
50907;DHT22;36882;27.680;85.304;2022-12-18T07:01:40;19.70;74.80
50907;DHT22;36882;27.680;85.304;2022-12-18T07:04:10;19.70;73.40
50907;DHT22;36882;27.680;85.304;2022-12-18T07:06:40;19.70;72.30
50907;DHT22;36882;27.680;85.304;2022-12-18T07:09:10;19.90;71.00
50907;DHT22;36882;27.680;85.304;2022-12-18T07:11:40;19.80;72.10
50907;DHT22;36882;27.680;85.304;2022-12-18T07:14:10;19.80;72.20
50907;DHT22;36882;27.680;85.304;2022-12-18T07:16:40;19.90;71.90
50907;DHT22;36882;27.680;85.304;2022-12-18T07:19:10;19.90;71.90
50907;DHT22;36882;27.680;85.304;2022-12-18T07:21:41;19.90;71.00
50907;DHT22;36882;27.680;85.304;2022-12-18T07:24:11;19.90;71.10
50907;DHT22;36882;27.680;85.304;2022-12-18T07:26:41;20.00;70.50
50907;DHT22;36882;27.680;85.304;2022-12-18T07:29:11;20.00;69.90
50907;DHT22;36882;27.680;85.304;2022-12-18T07:31:41;20.10;69.60
50907;DHT22;36882;27.680;85.304;2022-12-18T07:34:13;20.20;68.70
50907;DHT22;36882;27.680;85.304;2022-12-18T07:36:44;20.10;68.10
50907;DHT22;36882;27.680;85.304;2022-12-18T07:39:14;20.10;67.10
50907;DHT22;36882;27.680;85.304;2022-12-18T07:41:44;20.20;67.70
50907;DHT22;36882;27.680;85.304;2022-12-18T07:44:34;20.10;71.90
50907;DHT22;36882;27.680;85.304;2022-12-18T07:47:04;20.10;73.80
50907;DHT22;36882;27.680;85.304;2022-12-18T07:49:38;20.00;74.30
50907;DHT22;36882;27.680;85.304;2022-12-18T07:52:08;20.00;74.80
50907;DHT22;36882;27.680;85.304;2022-12-18T07:54:38;20.00;74.90
50907;DHT22;36882;27.680;85.304;2022-12-18T07:57:09;20.10;73.50
50907;DHT22;36882;27.680;85.304;2022-12-18T07:59:59;20.00;72.90
50907;DHT22;36882;27.680;85.304;2022-12-18T08:02:34;20.00;73.20
50907;DHT22;36882;27.680;85.304;2022-12-18T08:05:09;19.90;73.50
50907;DHT22;36882;27.680;85.304;2022-12-18T08:07:38;19.90;74.50
50907;DHT22;36882;27.680;85.304;2022-12-18T08:10:08;19.90;73.80
50907;DHT22;36882;27.680;85.304;2022-12-18T08:12:38;19.80;74.30
50907;DHT22;36882;27.680;85.304;2022-12-18T08:15:08;19.90;74.50
50907;DHT22;36882;27.680;85.304;2022-12-18T08:17:43;19.90;74.70
50907;DHT22;36882;27.680;85.304;2022-12-18T08:20:15;19.90;75.50
50907;DHT22;36882;27.680;85.304;2022-12-18T08:22:46;19.90;75.50
50907;DHT22;36882;27.680;85.304;2022-12-18T08:25:19;19.80;75.90
50907;DHT22;36882;27.680;85.304;2022-12-18T08:27:48;19.90;75.10
50907;DHT22;36882;27.680;85.304;2022-12-18T08:30:18;19.80;75.90
50907;DHT22;36882;27.680;85.304;2022-12-18T08:32:51;19.70;75.60
50907;DHT22;36882;27.680;85.304;2022-12-18T08:35:24;19.70;76.00
50907;DHT22;36882;27.680;85.304;2022-12-18T08:38:04;19.70;75.10
50907;DHT22;36882;27.680;85.304;2022-12-18T08:40:35;19.80;74.40
50907;DHT22;36882;27.680;85.304;2022-12-18T08:43:05;19.70;74.50
50907;DHT22;36882;27.680;85.304;2022-12-18T08:45:50;19.80;73.70
50907;DHT22;36882;27.680;85.304;2022-12-18T08:48:22;19.70;74.00
50907;DHT22;36882;27.680;85.304;2022-12-18T08:51:00;19.70;74.70
50907;DHT22;36882;27.680;85.304;2022-12-18T08:53:30;19.70;74.00
50907;DHT22;36882;27.680;85.304;2022-12-18T08:56:03;19.60;75.00
50907;DHT22;36882;27.680;85.304;2022-12-18T08:58:32;19.60;74.80
50907;DHT22;36882;27.680;85.304;2022-12-18T09:01:03;19.60;74.60
50907;DHT22;36882;27.680;85.304;2022-12-18T09:03:33;19.60;75.00
50907;DHT22;36882;27.680;85.304;2022-12-18T09:06:05;19.60;74.10
50907;DHT22;36882;27.680;85.304;2022-12-18T09:08:35;19.60;74.80
50907;DHT22;36882;27.680;85.304;2022-12-18T09:11:14;19.60;75.30
50907;DHT22;36882;27.680;85.304;2022-12-18T09:13:44;19.50;75.00
50907;DHT22;36882;27.680;85.304;2022-12-18T09:16:14;19.50;74.50
50907;DHT22;36882;27.680;85.304;2022-12-18T09:18:44;19.40;74.80
50907;DHT22;36882;27.680;85.304;2022-12-18T09:21:17;19.40;73.80
50907;DHT22;36882;27.680;85.304;2022-12-18T09:23:51;19.30;75.00
50907;DHT22;36882;27.680;85.304;2022-12-18T09:26:22;19.30;74.70
50907;DHT22;36882;27.680;85.304;2022-12-18T09:28:53;19.30;75.10
50907;DHT22;36882;27.680;85.304;2022-12-18T09:31:25;19.30;74.70
50907;DHT22;36882;27.680;85.304;2022-12-18T09:33:54;19.20;74.70
50907;DHT22;36882;27.680;85.304;2022-12-18T09:36:25;19.10;75.30
50907;DHT22;36882;27.680;85.304;2022-12-18T09:38:55;19.10;75.70
50907;DHT22;36882;27.680;85.304;2022-12-18T09:41:51;19.10;75.90
50907;DHT22;36882;27.680;85.304;2022-12-18T09:44:33;19.00;76.00
50907;DHT22;36882;27.680;85.304;2022-12-18T09:47:22;19.00;74.90
50907;DHT22;36882;27.680;85.304;2022-12-18T09:49:58;18.90;75.50
50907;DHT22;36882;27.680;85.304;2022-12-18T09:52:39;18.90;76.20
50907;DHT22;36882;27.680;85.304;2022-12-18T09:55:24;18.90;75.80
50907;DHT22;36882;27.680;85.304;2022-12-18T09:58:30;18.90;77.20
50907;DHT22;36882;27.680;85.304;2022-12-18T10:01:01;18.80;77.20
50907;DHT22;36882;27.680;85.304;2022-12-18T10:03:32;18.70;77.60
50907;DHT22;36882;27.680;85.304;2022-12-18T10:06:39;18.60;78.00
50907;DHT22;36882;27.680;85.304;2022-12-18T10:12:08;18.40;78.00
50907;DHT22;36882;27.680;85.304;2022-12-18T10:14:53;18.30;78.50
50907;DHT22;36882;27.680;85.304;2022-12-18T10:17:43;18.30;78.60
50907;DHT22;36882;27.680;85.304;2022-12-18T10:20:30;18.30;79.00
50907;DHT22;36882;27.680;85.304;2022-12-18T10:23:18;18.30;79.40
50907;DHT22;36882;27.680;85.304;2022-12-18T10:26:09;18.30;79.60
50907;DHT22;36882;27.680;85.304;2022-12-18T10:28:41;18.30;80.00
50907;DHT22;36882;27.680;85.304;2022-12-18T10:31:18;18.40;80.20
50907;DHT22;36882;27.680;85.304;2022-12-18T10:33:53;18.30;80.60
50907;DHT22;36882;27.680;85.304;2022-12-18T10:36:25;18.30;81.00
50907;DHT22;36882;27.680;85.304;2022-12-18T10:39:16;18.30;81.40
50907;DHT22;36882;27.680;85.304;2022-12-18T10:41:46;18.30;80.90
50907;DHT22;36882;27.680;85.304;2022-12-18T10:44:20;18.30;81.10
50907;DHT22;36882;27.680;85.304;2022-12-18T10:46:54;18.20;81.80
50907;DHT22;36882;27.680;85.304;2022-12-18T10:49:31;18.20;82.20
50907;DHT22;36882;27.680;85.304;2022-12-18T10:54:57;18.20;82.80
50907;DHT22;36882;27.680;85.304;2022-12-18T10:57:34;18.10;82.60
50907;DHT22;36882;27.680;85.304;2022-12-18T11:00:25;18.00;83.10
50907;DHT22;36882;27.680;85.304;2022-12-18T11:02:57;18.00;83.50
50907;DHT22;36882;27.680;85.304;2022-12-18T11:05:32;17.90;83.20
50907;DHT22;36882;27.680;85.304;2022-12-18T11:08:04;17.90;82.90
50907;DHT22;36882;27.680;85.304;2022-12-18T11:10:37;17.80;83.20
50907;DHT22;36882;27.680;85.304;2022-12-18T11:13:22;17.70;83.30
50907;DHT22;36882;27.680;85.304;2022-12-18T11:15:53;17.60;83.80
50907;DHT22;36882;27.680;85.304;2022-12-18T11:18:31;17.50;84.80
50907;DHT22;36882;27.680;85.304;2022-12-18T11:21:11;17.50;85.30
50907;DHT22;36882;27.680;85.304;2022-12-18T11:23:50;17.40;84.80
50907;DHT22;36882;27.680;85.304;2022-12-18T11:26:21;17.40;84.80
50907;DHT22;36882;27.680;85.304;2022-12-18T11:29:16;17.40;85.10
50907;DHT22;36882;27.680;85.304;2022-12-18T11:31:47;17.30;85.60
50907;DHT22;36882;27.680;85.304;2022-12-18T11:34:28;17.30;85.70
50907;DHT22;36882;27.680;85.304;2022-12-18T11:37:04;17.20;86.00
50907;DHT22;36882;27.680;85.304;2022-12-18T11:39:41;17.20;86.00
50907;DHT22;36882;27.680;85.304;2022-12-18T11:42:24;17.10;86.40
50907;DHT22;36882;27.680;85.304;2022-12-18T11:45:08;17.10;86.70
50907;DHT22;36882;27.680;85.304;2022-12-18T11:48:04;17.10;86.90
50907;DHT22;36882;27.680;85.304;2022-12-18T11:50:57;17.00;87.00
50907;DHT22;36882;27.680;85.304;2022-12-18T11:53:28;17.00;87.20
50907;DHT22;36882;27.680;85.304;2022-12-18T11:56:27;16.90;87.80
50907;DHT22;36882;27.680;85.304;2022-12-18T12:02:11;16.80;88.10
50907;DHT22;36882;27.680;85.304;2022-12-18T12:05:00;16.80;88.40
50907;DHT22;36882;27.680;85.304;2022-12-18T12:07:47;16.80;88.20
50907;DHT22;36882;27.680;85.304;2022-12-18T12:10:55;16.70;88.40
50907;DHT22;36882;27.680;85.304;2022-12-18T12:16:20;16.60;88.90
50907;DHT22;36882;27.680;85.304;2022-12-18T12:19:15;16.60;89.10
50907;DHT22;36882;27.680;85.304;2022-12-18T12:21:54;16.60;89.10
50907;DHT22;36882;27.680;85.304;2022-12-18T12:28:06;16.60;89.40
50907;DHT22;36882;27.680;85.304;2022-12-18T12:33:59;16.50;89.20
50907;DHT22;36882;27.680;85.304;2022-12-18T12:39:35;16.50;89.90
50907;DHT22;36882;27.680;85.304;2022-12-18T12:45:23;16.40;90.00
50907;DHT22;36882;27.680;85.304;2022-12-18T12:47:58;16.30;90.20
50907;DHT22;36882;27.680;85.304;2022-12-18T12:50:34;16.30;90.20
50907;DHT22;36882;27.680;85.304;2022-12-18T12:53:09;16.30;90.40
50907;DHT22;36882;27.680;85.304;2022-12-18T12:55:43;16.20;90.30
50907;DHT22;36882;27.680;85.304;2022-12-18T13:01:36;16.20;90.30
50907;DHT22;36882;27.680;85.304;2022-12-18T13:04:21;16.10;90.30
50907;DHT22;36882;27.680;85.304;2022-12-18T13:07:09;16.10;90.50
50907;DHT22;36882;27.680;85.304;2022-12-18T13:10:22;16.10;90.30
50907;DHT22;36882;27.680;85.304;2022-12-18T13:12:56;16.00;90.10
50907;DHT22;36882;27.680;85.304;2022-12-18T13:15:46;16.00;90.10
50907;DHT22;36882;27.680;85.304;2022-12-18T13:18:23;16.00;89.90
50907;DHT22;36882;27.680;85.304;2022-12-18T13:21:36;16.00;90.00
50907;DHT22;36882;27.680;85.304;2022-12-18T13:24:15;15.90;89.40
50907;DHT22;36882;27.680;85.304;2022-12-18T13:26:52;15.90;89.80
50907;DHT22;36882;27.680;85.304;2022-12-18T13:32:21;15.80;88.90
50907;DHT22;36882;27.680;85.304;2022-12-18T13:38:02;15.70;88.60
50907;DHT22;36882;27.680;85.304;2022-12-18T13:40:59;15.70;88.40
50907;DHT22;36882;27.680;85.304;2022-12-18T13:43:34;15.70;88.40
50907;DHT22;36882;27.680;85.304;2022-12-18T13:46:23;15.60;88.10
50907;DHT22;36882;27.680;85.304;2022-12-18T13:49:03;15.60;88.30
50907;DHT22;36882;27.680;85.304;2022-12-18T13:51:35;15.50;88.20
50907;DHT22;36882;27.680;85.304;2022-12-18T13:57:10;15.40;89.00
50907;DHT22;36882;27.680;85.304;2022-12-18T13:59:54;15.50;88.50
50907;DHT22;36882;27.680;85.304;2022-12-18T14:02:27;15.40;88.80
50907;DHT22;36882;27.680;85.304;2022-12-18T14:04:57;15.40;88.80
50907;DHT22;36882;27.680;85.304;2022-12-18T14:07:28;15.40;89.90
50907;DHT22;36882;27.680;85.304;2022-12-18T14:10:13;15.30;89.40
50907;DHT22;36882;27.680;85.304;2022-12-18T14:13:08;15.30;89.40
50907;DHT22;36882;27.680;85.304;2022-12-18T14:15:48;15.30;89.20
50907;DHT22;36882;27.680;85.304;2022-12-18T14:18:29;15.20;89.40
50907;DHT22;36882;27.680;85.304;2022-12-18T14:21:03;15.20;89.30
50907;DHT22;36882;27.680;85.304;2022-12-18T14:23:36;15.20;89.50
50907;DHT22;36882;27.680;85.304;2022-12-18T14:26:24;15.20;90.00
50907;DHT22;36882;27.680;85.304;2022-12-18T14:28:58;15.10;90.20
50907;DHT22;36882;27.680;85.304;2022-12-18T14:31:31;15.10;90.30
50907;DHT22;36882;27.680;85.304;2022-12-18T14:34:01;15.00;90.40
50907;DHT22;36882;27.680;85.304;2022-12-18T14:36:31;15.00;90.40
50907;DHT22;36882;27.680;85.304;2022-12-18T14:39:01;15.00;90.30
50907;DHT22;36882;27.680;85.304;2022-12-18T14:41:30;15.00;90.20
50907;DHT22;36882;27.680;85.304;2022-12-18T14:44:07;15.00;90.10
50907;DHT22;36882;27.680;85.304;2022-12-18T14:46:39;14.90;90.20
50907;DHT22;36882;27.680;85.304;2022-12-18T14:49:33;14.90;90.50
50907;DHT22;36882;27.680;85.304;2022-12-18T14:52:06;14.80;90.60
50907;DHT22;36882;27.680;85.304;2022-12-18T14:54:47;14.80;90.60
50907;DHT22;36882;27.680;85.304;2022-12-18T14:57:21;14.80;90.60
50907;DHT22;36882;27.680;85.304;2022-12-18T14:59:53;14.80;90.60
50907;DHT22;36882;27.680;85.304;2022-12-18T15:02:27;14.70;90.50
50907;DHT22;36882;27.680;85.304;2022-12-18T15:05:14;14.70;90.60
50907;DHT22;36882;27.680;85.304;2022-12-18T15:07:50;14.60;90.50
50907;DHT22;36882;27.680;85.304;2022-12-18T15:10:24;14.60;90.40
50907;DHT22;36882;27.680;85.304;2022-12-18T15:13:15;14.60;90.40
50907;DHT22;36882;27.680;85.304;2022-12-18T15:15:48;14.50;90.60
50907;DHT22;36882;27.680;85.304;2022-12-18T15:18:21;14.50;90.70
50907;DHT22;36882;27.680;85.304;2022-12-18T15:20:59;14.40;90.50
50907;DHT22;36882;27.680;85.304;2022-12-18T15:23:37;14.40;90.70
50907;DHT22;36882;27.680;85.304;2022-12-18T15:26:16;14.40;90.60
50907;DHT22;36882;27.680;85.304;2022-12-18T15:28:57;14.40;90.50
50907;DHT22;36882;27.680;85.304;2022-12-18T15:31:32;14.30;90.80
50907;DHT22;36882;27.680;85.304;2022-12-18T15:34:19;14.40;90.50
50907;DHT22;36882;27.680;85.304;2022-12-18T15:36:51;14.30;90.40
50907;DHT22;36882;27.680;85.304;2022-12-18T15:39:20;14.20;90.50
50907;DHT22;36882;27.680;85.304;2022-12-18T15:41:50;14.30;90.80
50907;DHT22;36882;27.680;85.304;2022-12-18T15:44:36;14.30;90.80
50907;DHT22;36882;27.680;85.304;2022-12-18T15:47:11;14.20;90.80
50907;DHT22;36882;27.680;85.304;2022-12-18T15:49:42;14.20;90.90
50907;DHT22;36882;27.680;85.304;2022-12-18T15:52:13;14.20;91.00
50907;DHT22;36882;27.680;85.304;2022-12-18T15:54:54;14.10;91.00
50907;DHT22;36882;27.680;85.304;2022-12-18T15:57:36;14.10;90.90
50907;DHT22;36882;27.680;85.304;2022-12-18T16:00:11;14.10;90.80
50907;DHT22;36882;27.680;85.304;2022-12-18T16:02:41;14.10;90.70
50907;DHT22;36882;27.680;85.304;2022-12-18T16:05:15;14.10;90.80
50907;DHT22;36882;27.680;85.304;2022-12-18T16:07:46;14.00;90.90
50907;DHT22;36882;27.680;85.304;2022-12-18T16:10:17;14.00;91.00
50907;DHT22;36882;27.680;85.304;2022-12-18T16:12:47;14.00;91.20
50907;DHT22;36882;27.680;85.304;2022-12-18T16:15:17;14.00;91.10
50907;DHT22;36882;27.680;85.304;2022-12-18T16:17:51;13.90;91.30
50907;DHT22;36882;27.680;85.304;2022-12-18T16:20:22;13.90;91.30
50907;DHT22;36882;27.680;85.304;2022-12-18T16:22:52;13.90;91.50
50907;DHT22;36882;27.680;85.304;2022-12-18T16:25:27;13.90;91.40
50907;DHT22;36882;27.680;85.304;2022-12-18T16:27:57;13.90;91.30
50907;DHT22;36882;27.680;85.304;2022-12-18T16:30:30;13.80;91.30
50907;DHT22;36882;27.680;85.304;2022-12-18T16:33:05;13.80;91.40
50907;DHT22;36882;27.680;85.304;2022-12-18T16:35:35;13.90;91.20
50907;DHT22;36882;27.680;85.304;2022-12-18T16:38:05;13.90;91.20
50907;DHT22;36882;27.680;85.304;2022-12-18T16:40:35;13.80;91.10
50907;DHT22;36882;27.680;85.304;2022-12-18T16:43:25;13.80;91.00
50907;DHT22;36882;27.680;85.304;2022-12-18T16:45:55;13.80;90.80
50907;DHT22;36882;27.680;85.304;2022-12-18T16:48:27;13.80;90.80
50907;DHT22;36882;27.680;85.304;2022-12-18T16:51:03;13.80;91.00